Time;durP1;ratioP1;P1;durP2;ratioP2;P2;SDS_P1;SDS_P2;PMS_P1;PMS_P2;Temp;Humidity;BMP_temperature;BMP_pressure;BME280_temperature;BME280_humidity;BME280_pressure;Samples;Min_cycle;Max_cycle;Signal;HPM_P1;HPM_P2
2022/04/19 00:00:32;;;;;;;;;9.75;9.00;;;;;13.84;57.28;100925.72;5070558;28;45760;-83
2022/04/19 00:02:57;;;;;;;;;13.75;13.00;;;;;14.11;57.38;100980.09;5071325;28;45650;-83
2022/04/19 00:05:23;;;;;;;;;14.25;12.75;;;;;14.10;57.12;100978.31;5070655;28;45861;-84
2022/04/19 00:07:48;;;;;;;;;15.25;14.75;;;;;14.08;57.13;100974.72;5070762;28;45458;-83
2022/04/19 00:10:13;;;;;;;;;15.00;14.25;;;;;13.70;57.13;100913.94;5069973;28;45533;-83
2022/04/19 00:12:39;;;;;;;;;14.75;14.75;;;;;13.74;57.42;100936.00;5071055;28;45283;-85
2022/04/19 00:15:05;;;;;;;;;12.50;12.00;;;;;13.96;57.64;100977.97;5069748;28;45423;-82
2022/04/19 00:17:31;;;;;;;;;15.50;15.00;;;;;13.71;57.55;100925.38;5052273;28;45865;-84
2022/04/19 00:19:57;;;;;;;;;16.00;14.75;;;;;13.68;57.59;100920.91;5071612;28;45381;-84
2022/04/19 00:22:22;;;;;;;;;12.00;12.00;;;;;13.79;57.34;100930.00;5070948;28;45353;-83
2022/04/19 00:24:47;;;;;;;;;14.75;14.25;;;;;13.76;57.52;100919.34;5070573;28;46081;-82
2022/04/19 00:27:13;;;;;;;;;14.25;13.75;;;;;13.75;57.39;100916.69;5070509;28;45585;-85
2022/04/19 00:29:41;;;;;;;;;14.25;14.00;;;;;13.61;57.50;100896.09;5052361;28;45921;-84
2022/04/19 00:32:08;;;;;;;;;13.00;12.75;;;;;13.89;57.53;100947.88;5072201;28;45492;-85
2022/04/19 00:34:33;;;;;;;;;15.50;14.75;;;;;13.71;57.44;100933.31;5056511;28;47311;-85
2022/04/19 00:37:01;;;;;;;;;12.75;12.75;;;;;13.70;57.31;100920.97;5074718;28;45425;-84
2022/04/19 00:39:26;;;;;;;;;13.25;13.00;;;;;13.65;57.38;100940.22;5073239;28;45533;-83
2022/04/19 00:41:52;;;;;;;;;15.25;13.50;;;;;13.52;57.32;100911.72;5056349;28;45483;-85
2022/04/19 00:44:17;;;;;;;;;14.25;14.25;;;;;13.49;57.07;100898.41;5073969;28;45455;-84
2022/04/19 00:46:42;;;;;;;;;15.75;13.00;;;;;13.36;57.34;100894.59;5074379;28;45491;-84
2022/04/19 00:49:08;;;;;;;;;13.75;12.50;;;;;13.40;57.44;100898.22;5065450;28;45449;-83
2022/04/19 00:51:33;;;;;;;;;12.25;12.00;;;;;13.42;57.43;100909.69;5054522;28;45735;-84
2022/04/19 00:53:59;;;;;;;;;13.75;12.50;;;;;13.68;57.66;100957.88;5053995;28;45423;-84
2022/04/19 00:56:25;;;;;;;;;14.75;14.50;;;;;13.42;57.39;100913.22;5053885;28;45176;-84
2022/04/19 00:58:51;;;;;;;;;13.50;13.00;;;;;13.26;57.23;100891.69;5054155;28;45752;-86
2022/04/19 01:01:16;;;;;;;;;13.50;11.25;;;;;13.27;57.24;100899.63;5053866;28;45427;-82
2022/04/19 01:03:42;;;;;;;;;11.67;11.00;;;;;13.41;57.56;100924.66;5036633;28;48366;-85
2022/04/19 01:06:08;;;;;;;;;14.25;12.50;;;;;13.61;57.38;100961.22;5053115;28;45878;-84
2022/04/19 01:08:34;;;;;;;;;14.75;12.75;;;;;13.54;57.54;100948.72;5053669;28;45659;-85
2022/04/19 01:13:43;;;;;;;;;10.25;10.00;;;;;13.53;57.18;100958.38;5073762;28;45920;-83
2022/04/19 01:16:08;;;;;;;;;12.25;11.75;;;;;13.15;57.38;100886.97;5073736;28;45398;-83
2022/04/19 01:18:35;;;;;;;;;11.00;9.75;;;;;13.23;57.34;100918.88;5073926;28;45593;-82
2022/04/19 01:21:01;;;;;;;;;9.75;9.00;;;;;13.09;57.16;100901.75;5054690;28;45572;-83
2022/04/19 01:23:26;;;;;;;;;10.25;9.00;;;;;12.96;57.01;100873.25;5073538;28;46165;-83
2022/04/19 01:25:52;;;;;;;;;8.75;7.75;;;;;13.26;56.62;100931.28;5073615;28;45533;-82
2022/04/19 01:28:19;;;;;;;;;11.00;11.00;;;;;13.08;56.54;100911.41;5072425;28;45560;-82
2022/04/19 01:30:49;;;;;;;;;10.75;9.50;;;;;12.94;56.40;100898.69;5055688;28;45435;-84
2022/04/19 01:33:15;;;;;;;;;10.00;9.00;;;;;12.83;56.29;100878.19;5071460;28;47329;-81
2022/04/19 01:35:41;;;;;;;;;8.50;8.50;;;;;12.96;56.28;100926.91;5072969;28;45818;-85
2022/04/19 01:38:06;;;;;;;;;9.50;8.50;;;;;12.88;56.03;100909.97;5072287;28;45600;-83
2022/04/19 01:40:31;;;;;;;;;8.75;8.25;;;;;12.82;55.79;100904.53;5073741;28;45462;-84
2022/04/19 01:43:02;;;;;;;;;8.50;7.00;;;;;13.03;55.91;100949.06;5070795;28;46884;-85
2022/04/19 01:45:30;;;;;;;;;6.75;6.75;;;;;13.01;55.80;100950.78;5070735;28;45713;-84
2022/04/19 01:47:57;;;;;;;;;6.00;5.00;;;;;12.99;55.91;100947.19;5073763;28;45410;-84
2022/04/19 01:50:26;;;;;;;;;6.00;6.00;;;;;12.68;55.86;100892.69;5072700;28;45467;-83
2022/04/19 01:52:53;;;;;;;;;5.25;5.25;;;;;12.69;55.76;100891.84;5071748;28;47238;-83
2022/04/19 01:55:20;;;;;;;;;7.25;5.75;;;;;12.55;55.93;100873.88;5072803;28;45451;-83
2022/04/19 01:57:48;;;;;;;;;6.00;6.00;;;;;12.92;55.79;100935.59;5073571;28;45498;-84
2022/04/19 02:00:15;;;;;;;;;5.00;4.75;;;;;12.61;55.45;100888.97;5072947;28;45581;-83
2022/04/19 02:02:43;;;;;;;;;7.50;6.25;;;;;12.59;55.37;100890.69;5073543;28;46388;-84
2022/04/19 02:05:08;;;;;;;;;7.00;6.00;;;;;12.62;55.62;100902.22;5072246;28;46025;-83
2022/04/19 02:07:38;;;;;;;;;5.00;5.00;;;;;12.70;55.50;100918.25;5073488;28;45347;-84
2022/04/19 02:10:05;;;;;;;;;6.00;6.00;;;;;12.67;55.54;100910.28;5072802;28;45571;-83
2022/04/19 02:12:31;;;;;;;;;4.75;4.00;;;;;12.45;55.30;100876.22;5072596;28;45431;-84
2022/04/19 02:14:57;;;;;;;;;4.50;4.50;;;;;12.49;55.02;100883.38;5073098;28;45906;-83
2022/04/19 02:17:23;;;;;;;;;5.25;4.00;;;;;12.65;55.04;100917.22;5072394;28;45540;-82
2022/04/19 02:19:58;;;;;;;;;5.00;5.00;;;;;12.76;54.98;100939.53;5072142;28;45450;-83
2022/04/19 02:22:23;;;;;;;;;4.50;4.00;;;;;12.24;54.87;100842.22;5072658;28;45571;-83
2022/04/19 02:24:49;;;;;;;;;5.00;4.75;;;;;12.49;54.94;100893.91;5072673;28;45422;-83
2022/04/19 02:27:15;;;;;;;;;4.25;4.00;;;;;12.70;55.07;100936.72;5072220;28;45450;-85
2022/04/19 02:29:40;;;;;;;;;6.25;6.25;;;;;12.35;55.40;100878.56;5071928;28;45680;-84
2022/04/19 02:32:06;;;;;;;;;5.00;5.00;;;;;12.56;55.56;100916.94;5072879;28;46657;-84
2022/04/19 02:34:31;;;;;;;;;7.25;5.00;;;;;12.47;55.32;100906.16;5071639;28;46186;-83
2022/04/19 02:36:56;;;;;;;;;5.25;5.00;;;;;12.43;55.04;100902.53;5073017;28;45686;-83
2022/04/19 02:39:22;;;;;;;;;3.75;3.00;;;;;12.47;55.03;100912.31;5071908;28;45423;-82
2022/04/19 02:41:47;;;;;;;;;4.00;4.00;;;;;12.25;55.03;100886.16;5070367;28;48032;-83
2022/04/19 02:44:13;;;;;;;;;5.75;4.75;;;;;12.12;55.03;100869.13;5053551;28;45734;-84
2022/04/19 02:46:38;;;;;;;;;4.50;4.25;;;;;12.39;55.03;100917.34;5072395;28;45366;-81
2022/04/19 02:49:04;;;;;;;;;6.25;5.25;;;;;12.42;55.04;100928.84;5053207;28;45280;-82
2022/04/19 02:51:33;;;;;;;;;4.00;4.00;;;;;12.16;55.26;100889.41;5072110;28;45439;-82
2022/04/19 02:53:58;;;;;;;;;6.00;5.25;;;;;12.39;54.86;100938.44;5053188;28;45793;-82
2022/04/19 02:56:24;;;;;;;;;6.25;5.50;;;;;12.02;55.13;100867.94;5070969;28;45511;-82
2022/04/19 02:58:49;;;;;;;;;6.25;5.50;;;;;11.91;55.17;100856.16;5072553;28;45568;-83
2022/04/19 03:01:15;;;;;;;;;4.50;3.75;;;;;12.20;54.96;100903.59;5071598;28;45518;-84
2022/04/19 03:03:40;;;;;;;;;4.00;3.25;;;;;12.31;55.03;100924.13;5072895;28;45728;-83
2022/04/19 03:06:07;;;;;;;;;6.00;6.00;;;;;12.10;54.88;100895.38;5071683;28;45533;-82
2022/04/19 03:08:34;;;;;;;;;3.25;3.00;;;;;11.91;54.74;100863.16;5053978;28;45442;-84
2022/04/19 03:11:00;;;;;;;;;4.00;4.00;;;;;11.88;54.71;100854.34;5071707;28;46328;-84
2022/04/19 03:13:27;;;;;;;;;5.50;5.25;;;;;12.08;54.77;100896.22;5071548;28;45487;-84
2022/04/19 03:15:53;;;;;;;;;5.00;5.00;;;;;11.81;54.51;100854.94;5072378;28;45625;-82
2022/04/19 03:18:18;;;;;;;;;4.25;3.50;;;;;11.96;54.50;100887.91;5071692;28;45298;-82
2022/04/19 03:20:45;;;;;;;;;5.00;4.00;;;;;11.83;54.60;100877.00;5071892;28;45378;-85
2022/04/19 03:28:40;;;;;;;;;5.00;5.00;;;;;11.71;54.26;100860.75;5073009;28;45371;-83
2022/04/19 03:31:05;;;;;;;;;4.00;4.00;;;;;11.94;54.40;100895.78;5053038;28;47276;-85
2022/04/19 03:33:31;;;;;;;;;4.25;4.00;;;;;11.72;54.13;100857.28;5071640;28;45659;-84
2022/04/19 03:35:57;;;;;;;;;5.75;4.75;;;;;12.01;54.23;100907.38;5053230;28;45476;-83
2022/04/19 03:38:22;;;;;;;;;4.75;4.75;;;;;11.84;54.10;100884.06;5071266;28;45670;-82
2022/04/19 03:40:48;;;;;;;;;4.00;4.00;;;;;11.60;54.40;100849.00;5071594;28;46049;-83
2022/04/19 03:43:13;;;;;;;;;6.25;5.50;;;;;11.85;54.31;100888.47;5053364;28;45551;-82
2022/04/19 03:45:39;;;;;;;;;4.33;3.00;;;;;11.89;54.46;100907.91;5070368;28;45468;-83
2022/04/19 03:48:05;;;;;;;;;3.00;3.00;;;;;11.66;54.13;100867.63;5067273;28;45692;-82
2022/04/19 03:50:31;;;;;;;;;4.25;4.00;;;;;11.86;54.40;100898.16;5069988;28;47514;-84
2022/04/19 03:52:57;;;;;;;;;5.75;4.50;;;;;11.71;54.56;100875.69;5053601;28;46051;-83
2022/04/19 03:55:23;;;;;;;;;5.25;4.00;;;;;11.83;54.30;100887.53;5070468;28;45935;-84
2022/04/19 03:57:48;;;;;;;;;3.75;3.75;;;;;11.58;54.56;100840.19;5071468;28;45402;-83
2022/04/19 04:00:15;;;;;;;;;4.75;4.50;;;;;11.91;54.87;100900.94;5071285;28;46098;-84
2022/04/19 04:02:40;;;;;;;;;4.25;4.25;;;;;11.61;54.65;100854.31;5072165;28;45931;-84
2022/04/19 04:05:06;;;;;;;;;6.00;4.25;;;;;11.68;55.13;100870.31;5071505;28;45892;-84
2022/04/19 04:07:32;;;;;;;;;3.75;3.75;;;;;11.61;55.25;100869.22;5071188;28;45381;-84
2022/04/19 04:09:57;;;;;;;;;5.00;5.00;;;;;11.43;55.88;100837.03;5071121;28;45887;-83
2022/04/19 04:12:23;;;;;;;;;4.00;4.00;;;;;11.74;55.74;100892.47;5071093;28;45531;-84
2022/04/19 04:14:48;;;;;;;;;5.00;4.25;;;;;11.57;55.77;100867.31;5071259;28;45543;-82
2022/04/19 04:17:14;;;;;;;;;4.50;3.75;;;;;11.42;56.04;100837.88;5069850;28;45292;-82
2022/04/19 04:19:39;;;;;;;;;6.00;6.00;;;;;11.51;55.79;100857.50;5071506;28;45500;-84
2022/04/19 04:22:05;;;;;;;;;3.00;3.00;;;;;11.32;55.54;100819.16;5070871;28;45487;-84
2022/04/19 04:24:30;;;;;;;;;4.00;4.00;;;;;11.58;56.04;100858.59;5071283;28;45387;-83
2022/04/19 04:26:55;;;;;;;;;3.50;3.50;;;;;11.60;55.67;100847.28;5070793;28;45654;-84
2022/04/19 04:29:21;;;;;;;;;4.75;4.25;;;;;11.51;55.53;100819.75;5069415;28;46510;-83
2022/04/19 04:31:46;;;;;;;;;3.00;3.00;;;;;11.74;55.45;100860.88;5053093;28;45840;-85
2022/04/19 04:34:12;;;;;;;;;3.67;3.67;;;;;11.92;55.67;100891.28;5070464;28;45430;-82
2022/04/19 04:36:37;;;;;;;;;4.75;4.00;;;;;11.50;55.47;100813.59;5069993;28;45485;-84
2022/04/19 04:39:03;;;;;;;;;4.25;3.50;;;;;12.01;55.70;100897.72;5070215;28;45985;-82
2022/04/19 04:41:28;;;;;;;;;4.50;4.00;;;;;11.86;55.93;100879.72;5051793;28;45455;-84
2022/04/19 04:43:54;;;;;;;;;4.00;4.00;;;;;11.76;55.93;100864.44;5070645;28;45541;-83
2022/04/19 04:51:47;;;;;;;;;4.00;4.00;;;;;11.70;55.80;100837.91;5071162;28;45959;-84
2022/04/19 04:54:13;;;;;;;;;3.75;3.75;;;;;11.75;55.73;100846.84;5069371;28;45485;-84
2022/04/19 04:56:38;;;;;;;;;5.00;4.67;;;;;11.83;55.87;100855.94;5070970;28;45691;-84
2022/04/19 04:59:03;;;;;;;;;5.00;3.75;;;;;11.67;55.71;100837.81;5069404;28;48152;-84
2022/04/19 05:01:29;;;;;;;;;3.00;3.00;;;;;11.84;55.73;100876.16;5070753;28;45524;-82
2022/04/19 05:03:54;;;;;;;;;5.00;4.50;;;;;11.83;56.02;100876.13;5070770;28;45427;-83
2022/04/19 05:06:19;;;;;;;;;5.75;3.75;;;;;12.13;56.08;100928.84;5070786;28;45623;-85
2022/04/19 05:08:45;;;;;;;;;3.00;3.00;;;;;12.05;56.16;100904.00;5070630;28;46316;-84
2022/04/19 05:11:10;;;;;;;;;3.00;3.00;;;;;11.83;55.86;100855.03;5070619;28;45747;-85
2022/04/19 05:13:35;;;;;;;;;5.00;4.00;;;;;12.09;55.84;100904.16;5053407;28;45841;-84
2022/04/19 05:16:01;;;;;;;;;3.00;3.00;;;;;12.01;55.85;100902.13;5070732;28;45819;-83
2022/04/19 05:18:27;;;;;;;;;3.75;3.50;;;;;11.90;56.07;100877.19;5070483;28;47921;-82
2022/04/19 05:20:52;;;;;;;;;5.00;4.00;;;;;12.00;55.83;100890.69;5055196;28;45650;-82
2022/04/19 05:23:18;;;;;;;;;4.25;3.75;;;;;11.88;56.13;100864.88;5073466;28;45516;-84
2022/04/19 05:25:44;;;;;;;;;2.25;2.25;;;;;12.16;56.26;100915.75;5055285;28;45527;-83
2022/04/19 05:28:09;;;;;;;;;2.75;2.75;;;;;11.92;56.35;100864.94;5073042;28;47071;-84
2022/04/19 05:30:35;;;;;;;;;4.00;3.00;;;;;11.90;56.24;100857.00;5055247;28;45845;-84
2022/04/19 05:33:00;;;;;;;;;2.25;2.00;;;;;12.15;56.46;100890.25;5073603;28;45482;-83
2022/04/19 05:35:26;;;;;;;;;4.00;3.75;;;;;12.24;56.32;100895.81;5055868;28;45848;-83
2022/04/19 05:37:52;;;;;;;;;4.00;3.50;;;;;12.01;56.08;100845.06;5073043;28;45814;-83
2022/04/19 05:40:18;;;;;;;;;4.00;4.00;;;;;12.16;56.05;100868.31;5072765;28;45528;-84
2022/04/19 05:42:43;;;;;;;;;3.00;2.33;;;;;12.06;56.46;100864.53;5073624;28;45405;-83
2022/04/19 05:45:09;;;;;;;;;2.25;2.00;;;;;12.11;56.49;100862.03;5055022;28;45724;-83
2022/04/19 05:47:34;;;;;;;;;4.50;4.00;;;;;12.02;56.37;100857.41;5072686;28;45638;-82
2022/04/19 05:49:59;;;;;;;;;7.25;5.00;;;;;11.88;56.78;100837.66;5057074;28;45408;-84
2022/04/19 05:52:24;;;;;;;;;5.00;3.00;;;;;12.09;57.18;100876.91;5052696;28;45579;-83
2022/04/19 05:54:50;;;;;;;;;4.00;4.00;;;;;12.21;57.06;100894.81;5052413;28;45530;-82
2022/04/19 05:57:21;;;;;;;;;6.00;4.50;;;;;12.06;57.16;100877.69;5052124;28;45467;-81
2022/04/19 05:59:46;;;;;;;;;5.00;4.00;;;;;12.14;57.03;100896.38;5034519;28;46043;-83
2022/04/19 06:04:58;;;;;;;;;4.00;3.00;;;;;11.98;57.53;100863.41;5052733;28;45392;-83
2022/04/19 06:07:25;;;;;;;;;7.00;4.50;;;;;11.82;57.39;100841.00;5052002;28;45891;-83
2022/04/19 06:09:50;;;;;;;;;4.00;3.00;;;;;12.35;57.51;100917.22;5058919;28;45507;-83
2022/04/19 06:12:16;;;;;;;;;3.75;3.00;;;;;12.26;57.36;100902.00;5072297;28;45686;-82
2022/04/19 06:14:41;;;;;;;;;5.00;3.75;;;;;12.02;57.71;100865.31;5054322;28;45522;-83
2022/04/19 06:17:07;;;;;;;;;4.75;4.75;;;;;12.09;57.70;100876.91;5071678;28;46284;-84
2022/04/19 06:19:32;;;;;;;;;4.75;4.50;;;;;12.12;57.93;100871.75;5072857;28;45384;-82
2022/04/19 06:21:58;;;;;;;;;7.00;5.25;;;;;12.18;57.92;100871.03;5072943;28;45814;-82
2022/04/19 06:24:24;;;;;;;;;6.50;5.25;;;;;12.28;58.08;100883.63;5070308;28;45775;-83
2022/04/19 06:26:50;;;;;;;;;4.00;3.25;;;;;12.45;57.83;100907.84;5054244;28;47427;-85
2022/04/19 06:29:15;;;;;;;;;4.00;3.75;;;;;12.53;58.00;100920.41;5071496;28;45372;-83
2022/04/19 06:31:41;;;;;;;;;6.25;4.50;;;;;12.26;57.66;100880.03;5072803;28;45642;-84
2022/04/19 06:34:07;;;;;;;;;4.75;4.00;;;;;12.21;57.88;100874.63;5070651;28;45935;-83
2022/04/19 06:36:33;;;;;;;;;4.75;4.75;;;;;12.28;57.88;100887.16;5053874;28;47458;-82
2022/04/19 06:38:58;;;;;;;;;5.00;4.25;;;;;12.30;57.95;100889.81;5071542;28;45636;-82
2022/04/19 06:41:23;;;;;;;;;4.00;4.00;;;;;12.28;58.26;100892.44;5072087;28;45379;-83
2022/04/19 06:43:49;;;;;;;;;6.00;5.00;;;;;12.25;58.22;100873.88;5072009;28;45439;-82
2022/04/19 06:46:15;;;;;;;;;9.25;6.25;;;;;12.48;58.22;100915.84;5071195;28;45824;-84
2022/04/19 06:48:41;;;;;;;;;6.00;5.50;;;;;12.30;57.80;100871.38;5070764;28;45536;-82
2022/04/19 06:51:07;;;;;;;;;7.75;3.75;;;;;12.26;58.31;100873.03;5072163;28;45360;-84
2022/04/19 06:53:32;;;;;;;;;6.00;5.00;;;;;12.40;58.36;100892.78;5052871;28;45399;-83
2022/04/19 06:55:57;;;;;;;;;6.50;5.50;;;;;12.44;58.59;100895.50;5071577;28;46538;-83
2022/04/19 06:58:23;;;;;;;;;5.25;4.00;;;;;12.45;58.45;100898.19;5070212;28;45695;-84
2022/04/19 07:00:48;;;;;;;;;4.67;4.67;;;;;12.33;58.39;100868.84;5071575;28;45415;-83
2022/04/19 07:03:14;;;;;;;;;4.00;4.00;;;;;12.64;57.89;100915.44;5071864;28;45692;-84
2022/04/19 07:05:40;;;;;;;;;5.00;5.00;;;;;12.59;57.98;100915.31;5071717;28;45386;-83
2022/04/19 07:08:07;;;;;;;;;7.50;7.25;;;;;12.44;57.81;100872.69;5069705;28;45682;-83
2022/04/19 07:10:33;;;;;;;;;6.25;5.75;;;;;12.42;57.71;100862.97;5072137;28;45481;-82
2022/04/19 07:12:59;;;;;;;;;6.00;5.00;;;;;12.61;57.98;100894.25;5071364;28;45596;-83
2022/04/19 07:15:25;;;;;;;;;7.00;6.75;;;;;12.71;57.63;100905.94;5071854;28;46739;-84
2022/04/19 07:17:50;;;;;;;;;5.25;5.00;;;;;12.71;58.26;100916.50;5072211;28;45707;-83
2022/04/19 07:28:27;;;;;;;;;7.00;6.00;;;;;12.49;57.24;100835.91;5071790;28;45280;-84
2022/04/19 07:30:53;;;;;;;;;6.75;6.00;;;;;12.91;57.50;100910.06;5071433;28;45727;-84
2022/04/19 07:33:18;;;;;;;;;6.25;5.00;;;;;12.86;56.69;100893.22;5071226;28;45470;-82
2022/04/19 07:35:45;;;;;;;;;6.25;6.00;;;;;13.00;56.95;100917.31;5053286;28;45871;-84
2022/04/19 07:38:11;;;;;;;;;8.50;5.25;;;;;12.71;56.80;100846.22;5070659;28;46160;-83
2022/04/19 07:40:37;;;;;;;;;10.50;8.00;;;;;12.79;56.90;100862.22;5071722;28;45477;-83
2022/04/19 07:43:02;;;;;;;;;6.00;5.50;;;;;12.90;56.79;100860.78;5071504;28;45506;-82
2022/04/19 07:45:29;;;;;;;;;9.00;8.00;;;;;13.26;56.36;100911.03;5052540;28;48029;-84
2022/04/19 07:47:55;;;;;;;;;7.00;6.25;;;;;13.24;56.56;100896.00;5070974;28;45736;-83
2022/04/19 07:50:20;;;;;;;;;8.50;6.75;;;;;13.15;56.68;100859.66;5070963;28;45501;-84
2022/04/19 07:52:45;;;;;;;;;8.25;7.50;;;;;13.23;56.01;100846.72;5052701;28;45689;-82
2022/04/19 07:55:11;;;;;;;;;7.75;7.00;;;;;13.41;56.11;100855.09;5052478;28;47179;-84
2022/04/19 07:57:36;;;;;;;;;8.00;7.25;;;;;13.53;55.94;100849.22;5071293;28;45635;-83
2022/04/19 08:00:04;;;;;;;;;9.75;8.75;;;;;13.60;55.37;100848.53;5070468;28;45917;-82
2022/04/19 08:02:30;;;;;;;;;10.00;8.00;;;;;13.66;54.73;100854.84;5070891;28;45545;-83
2022/04/19 08:04:56;;;;;;;;;8.50;6.50;;;;;13.94;54.77;100900.41;5052476;28;48202;-84
2022/04/19 08:07:21;;;;;;;;;8.00;6.50;;;;;13.64;54.32;100842.44;5070300;28;45509;-83
2022/04/19 08:09:47;;;;;;;;;8.00;8.00;;;;;13.66;54.49;100832.81;5070442;28;45731;-83
2022/04/19 08:12:12;;;;;;;;;9.00;9.00;;;;;13.89;53.92;100863.31;5069028;28;45572;-82
2022/04/19 08:14:41;;;;;;;;;8.00;7.50;;;;;13.93;54.25;100861.63;5070926;28;46267;-84
2022/04/19 08:17:06;;;;;;;;;9.00;8.00;;;;;14.13;54.51;100883.19;5070963;28;45372;-85
2022/04/19 08:19:31;;;;;;;;;10.00;8.25;;;;;14.17;53.91;100856.88;5071053;28;45813;-83
2022/04/19 08:21:57;;;;;;;;;10.00;8.00;;;;;14.54;53.54;100907.06;5068987;28;45452;-82
2022/04/19 08:24:23;;;;;;;;;12.00;9.00;;;;;14.54;53.18;100902.66;5069754;28;46486;-83
2022/04/19 08:26:48;;;;;;;;;11.00;9.00;;;;;14.43;53.18;100877.69;5069136;28;45442;-83
2022/04/19 08:29:13;;;;;;;;;7.00;7.00;;;;;14.35;52.74;100863.44;5070344;28;45885;-84
2022/04/19 08:31:39;;;;;;;;;9.75;9.00;;;;;14.42;52.93;100866.22;5070614;28;45704;-82
2022/04/19 08:34:04;;;;;;;;;7.00;7.00;;;;;14.55;52.37;100883.28;5070228;28;45482;-84
2022/04/19 08:36:29;;;;;;;;;7.75;7.00;;;;;14.51;52.27;100857.63;5070718;28;45708;-85
2022/04/19 08:38:55;;;;;;;;;6.50;6.50;;;;;14.48;52.35;100846.06;5070008;28;45777;-83
2022/04/19 08:41:21;;;;;;;;;7.00;6.25;;;;;14.48;51.18;100830.22;5069921;28;45339;-82
2022/04/19 08:43:46;;;;;;;;;8.00;7.75;;;;;14.62;51.52;100853.44;5070376;28;46414;-83
2022/04/19 08:46:13;;;;;;;;;12.75;9.00;;;;;14.59;50.89;100834.88;5069438;28;45450;-82
2022/04/19 08:48:40;;;;;;;;;8.75;7.50;;;;;14.71;51.23;100843.03;5070422;28;45371;-83
2022/04/19 08:51:09;;;;;;;;;8.25;8.00;;;;;14.88;50.92;100867.19;5051888;28;45675;-83
2022/04/19 08:59:06;;;;;;;;;7.00;7.00;;;;;15.21;50.00;100897.78;5073750;28;45339;-84
2022/04/19 09:01:31;;;;;;;;;8.00;7.00;;;;;15.05;50.04;100853.38;5055774;28;45861;-83
2022/04/19 09:03:57;;;;;;;;;8.00;7.75;;;;;15.28;49.94;100891.75;5073848;28;45771;-83
2022/04/19 09:06:54;;;;;;;;;8.25;7.50;;;;;15.37;49.99;100880.38;5073512;28;45675;-83
2022/04/19 09:09:22;;;;;;;;;9.50;7.75;;;;;14.99;49.79;100808.25;5071606;28;45805;-83
2022/04/19 09:11:48;;;;;;;;;8.75;8.00;;;;;15.21;49.71;100828.94;5073609;28;45644;-83
2022/04/19 09:14:14;;;;;;;;;6.25;6.25;;;;;15.40;49.58;100825.72;5073168;28;46475;-85
2022/04/19 09:16:40;;;;;;;;;6.50;6.50;;;;;15.58;49.25;100814.53;5074075;28;45717;-85
2022/04/19 09:19:08;;;;;;;;;8.25;7.25;;;;;15.91;48.63;100853.94;5073854;28;45519;-83
2022/04/19 09:21:38;;;;;;;;;10.50;9.00;;;;;16.07;47.91;100859.47;5054976;28;46039;-84
2022/04/19 09:24:21;;;;;;;;;11.25;10.25;;;;;16.02;48.05;100846.13;5072285;28;45813;-84
2022/04/19 09:26:49;;;;;;;;;9.75;8.75;;;;;16.17;48.32;100880.81;5073084;28;45852;-83
2022/04/19 09:29:18;;;;;;;;;9.75;9.50;;;;;16.10;48.10;100856.84;5071196;28;45597;-83
2022/04/19 09:31:43;;;;;;;;;8.50;7.50;;;;;15.74;48.15;100794.50;5073621;28;45406;-83
2022/04/19 09:34:09;;;;;;;;;12.75;11.25;;;;;15.82;47.86;100816.69;5071173;28;47934;-83
2022/04/19 09:36:34;;;;;;;;;11.75;11.00;;;;;15.74;48.25;100800.66;5054401;28;45907;-83
2022/04/19 09:38:59;;;;;;;;;10.50;9.00;;;;;15.84;48.67;100817.59;5071364;28;45454;-82
2022/04/19 09:41:30;;;;;;;;;11.00;11.00;;;;;16.15;48.74;100863.97;5073014;28;45753;-85
2022/04/19 09:44:10;;;;;;;;;14.75;14.00;;;;;16.09;48.59;100837.38;5071202;28;48397;-84
2022/04/19 09:46:36;;;;;;;;;14.00;11.25;;;;;16.16;48.40;100841.03;5072971;28;45729;-83
2022/04/19 09:49:02;;;;;;;;;12.00;12.00;;;;;16.06;48.76;100808.19;5046253;28;45981;-83
2022/04/19 09:51:31;;;;;;;;;13.25;12.75;;;;;16.44;48.35;100848.44;5052332;28;45500;-83
2022/04/19 09:53:57;;;;;;;;;13.00;12.75;;;;;16.59;47.94;100846.84;5052111;28;46592;-83
2022/04/19 09:56:23;;;;;;;;;14.00;13.50;;;;;16.42;48.32;100807.75;5052255;28;45784;-83
2022/04/19 09:58:50;;;;;;;;;14.50;12.00;;;;;16.53;47.72;100799.91;5052305;28;45811;-84
2022/04/19 10:09:34;;;;;;;;;16.75;15.50;;;;;17.03;47.73;100831.44;5055855;28;45674;-85
2022/04/19 10:12:01;;;;;;;;;14.50;14.50;;;;;17.02;48.09;100827.88;5072012;28;45782;-84
2022/04/19 10:14:29;;;;;;;;;15.25;12.25;;;;;17.10;47.80;100813.81;5070381;28;48094;-84
2022/04/19 10:16:57;;;;;;;;;23.25;17.25;;;;;17.10;47.85;100811.16;5072176;28;45311;-83
2022/04/19 10:19:23;;;;;;;;;15.00;12.50;;;;;16.88;47.64;100756.94;5071910;28;45459;-83
2022/04/19 10:21:49;;;;;;;;;15.75;15.25;;;;;17.30;48.30;100814.88;5072045;28;45827;-83
2022/04/19 10:24:16;;;;;;;;;15.50;15.00;;;;;17.05;47.84;100759.78;5071356;28;45922;-83
2022/04/19 10:26:45;;;;;;;;;18.25;16.50;;;;;17.13;47.31;100771.31;5072067;28;45937;-85
2022/04/19 10:29:32;;;;;;;;;15.00;14.25;;;;;17.13;47.23;100777.53;5053471;28;45796;-84
2022/04/19 10:32:01;;;;;;;;;18.00;17.25;;;;;17.34;47.39;100819.34;5072025;28;45442;-82
2022/04/19 10:34:33;;;;;;;;;19.75;19.75;;;;;17.27;47.96;100813.06;5072051;28;46260;-85
2022/04/19 10:37:11;;;;;;;;;15.00;15.00;;;;;17.31;47.95;100816.63;5069991;28;45942;-83
2022/04/19 10:39:44;;;;;;;;;16.25;16.25;;;;;17.34;47.70;100816.69;5053817;28;45795;-83
2022/04/19 10:42:26;;;;;;;;;18.50;15.25;;;;;17.02;47.96;100744.69;5053227;28;45645;-84
2022/04/19 10:44:52;;;;;;;;;22.25;19.50;;;;;17.27;47.16;100774.97;5071487;28;45546;-84
2022/04/19 10:47:26;;;;;;;;;18.50;17.75;;;;;17.59;47.61;100806.22;5071602;28;45591;-84
2022/04/19 10:49:59;;;;;;;;;15.00;14.75;;;;;17.36;47.87;100745.84;5046905;28;45463;-84
2022/04/19 10:52:39;;;;;;;;;19.25;17.00;;;;;17.77;47.42;100801.94;5030960;28;45681;-84
2022/04/19 10:55:06;;;;;;;;;17.00;16.50;;;;;17.84;46.77;100802.88;5029456;28;47129;-82
2022/04/19 11:00:54;;;;;;;;;19.00;17.25;;;;;17.83;47.04;100773.59;5031295;28;45718;-84
2022/04/19 11:03:20;;;;;;;;;16.25;16.25;;;;;18.02;47.02;100789.66;5029238;28;45555;-83
2022/04/19 11:05:45;;;;;;;;;20.00;19.00;;;;;18.13;47.24;100788.81;5029601;28;47948;-84
2022/04/19 11:08:27;;;;;;;;;15.50;14.75;;;;;17.86;46.46;100723.13;5029095;28;45704;-83
2022/04/19 11:10:55;;;;;;;;;19.25;16.25;;;;;18.35;46.61;100790.69;5041655;28;45605;-85
2022/04/19 11:13:27;;;;;;;;;19.00;18.50;;;;;18.17;46.01;100730.31;5030640;28;45879;-83
2022/04/19 11:16:05;;;;;;;;;20.75;19.00;;;;;18.56;46.00;100787.19;5029324;28;46151;-83
2022/04/19 11:18:34;;;;;;;;;17.25;16.25;;;;;18.65;45.86;100786.34;5046397;28;46086;-84
2022/04/19 11:21:03;;;;;;;;;16.00;14.50;;;;;18.68;45.71;100770.38;5029007;28;45723;-82
2022/04/19 11:23:40;;;;;;;;;17.00;16.00;;;;;18.78;46.20;100778.41;5030657;28;45728;-84
2022/04/19 11:26:08;;;;;;;;;17.75;17.50;;;;;18.77;45.38;100760.69;5030249;28;46863;-82
2022/04/19 11:28:34;;;;;;;;;21.50;18.50;;;;;18.70;44.99;100742.91;5029231;28;45822;-84
2022/04/19 11:31:00;;;;;;;;;18.00;16.50;;;;;18.94;45.62;100776.66;5030544;28;45568;-84
2022/04/19 11:33:36;;;;;;;;;16.00;15.00;;;;;18.96;45.46;100774.00;5045952;28;45506;-84
2022/04/19 11:36:06;;;;;;;;;19.75;19.00;;;;;19.00;45.25;100771.31;5028587;28;46211;-84
2022/04/19 11:38:40;;;;;;;;;19.75;18.50;;;;;19.00;44.89;100774.00;5030577;28;45964;-84
2022/04/19 11:46:46;;;;;;;;;21.00;19.75;;;;;19.21;44.93;100782.88;5030303;28;45878;-84
2022/04/19 11:49:25;;;;;;;;;20.50;19.00;;;;;19.04;45.34;100717.16;5032072;28;45543;-84
2022/04/19 11:51:56;;;;;;;;;19.25;18.50;;;;;19.39;45.06;100750.00;5050740;28;45513;-83
2022/04/19 11:54:26;;;;;;;;;21.25;20.75;;;;;19.67;44.87;100782.88;5049878;28;45506;-83
2022/04/19 11:56:52;;;;;;;;;18.75;18.50;;;;;19.72;44.48;100776.66;5050075;28;45521;-85
2022/04/19 11:59:23;;;;;;;;;20.75;19.50;;;;;19.62;44.22;100750.88;5050443;28;46067;-82
2022/04/19 12:01:49;;;;;;;;;22.25;21.00;;;;;19.61;43.83;100735.78;5050797;28;45853;-84
2022/04/19 12:04:15;;;;;;;;;22.50;19.50;;;;;19.83;43.51;100763.28;5049735;28;45303;-84